sensor_id;sensor_type;location;lat;lon;timestamp;pressure;altitude;pressure_sealevel;temperature;humidity
21779;BME280;11050;52.222;20.916;2022-10-16T00:01:18;100243.50;;;16.00;93.04
21779;BME280;11050;52.222;20.916;2022-10-16T00:03:45;100245.69;;;16.03;93.85
21779;BME280;11050;52.222;20.916;2022-10-16T00:06:12;100243.75;;;16.03;93.88
21779;BME280;11050;52.222;20.916;2022-10-16T00:08:39;100244.28;;;16.05;93.40
21779;BME280;11050;52.222;20.916;2022-10-16T00:11:15;100245.34;;;16.09;92.80
21779;BME280;11050;52.222;20.916;2022-10-16T00:13:44;100236.16;;;16.14;93.29
21779;BME280;11050;52.222;20.916;2022-10-16T00:16:11;100254.44;;;16.15;92.72
21779;BME280;11050;52.222;20.916;2022-10-16T00:18:39;100238.59;;;16.21;91.94
21779;BME280;11050;52.222;20.916;2022-10-16T00:21:13;100243.53;;;16.24;92.33
21779;BME280;11050;52.222;20.916;2022-10-16T00:23:39;100247.16;;;16.24;92.07
21779;BME280;11050;52.222;20.916;2022-10-16T00:26:10;100242.13;;;16.26;91.92
21779;BME280;11050;52.222;20.916;2022-10-16T00:28:36;100247.38;;;16.28;91.25
21779;BME280;11050;52.222;20.916;2022-10-16T00:31:09;100241.84;;;16.28;90.91
21779;BME280;11050;52.222;20.916;2022-10-16T00:33:38;100242.06;;;16.31;91.19
21779;BME280;11050;52.222;20.916;2022-10-16T00:36:05;100247.63;;;16.31;90.24
21779;BME280;11050;52.222;20.916;2022-10-16T00:38:32;100257.38;;;16.29;90.36
21779;BME280;11050;52.222;20.916;2022-10-16T00:40:57;100256.59;;;16.23;90.39
21779;BME280;11050;52.222;20.916;2022-10-16T00:43:41;100256.88;;;16.22;91.03
21779;BME280;11050;52.222;20.916;2022-10-16T00:46:25;100258.00;;;16.21;90.69
21779;BME280;11050;52.222;20.916;2022-10-16T00:49:07;100262.22;;;16.13;89.44
21779;BME280;11050;52.222;20.916;2022-10-16T00:51:43;100265.59;;;16.10;90.02
21779;BME280;11050;52.222;20.916;2022-10-16T00:54:26;100273.41;;;16.03;89.58
21779;BME280;11050;52.222;20.916;2022-10-16T00:56:55;100272.63;;;15.97;90.28
21779;BME280;11050;52.222;20.916;2022-10-16T00:59:34;100272.09;;;15.95;90.32
21779;BME280;11050;52.222;20.916;2022-10-16T01:02:02;100266.00;;;15.93;91.24
21779;BME280;11050;52.222;20.916;2022-10-16T01:04:36;100265.75;;;15.90;90.57
21779;BME280;11050;52.222;20.916;2022-10-16T01:13:10;100266.88;;;15.89;91.59
21779;BME280;11050;52.222;20.916;2022-10-16T01:16:07;100276.81;;;15.95;91.74
21779;BME280;11050;52.222;20.916;2022-10-16T01:18:47;100267.06;;;15.97;91.21
21779;BME280;11050;52.222;20.916;2022-10-16T01:21:26;100267.91;;;15.98;92.01
21779;BME280;11050;52.222;20.916;2022-10-16T01:24:31;100272.63;;;15.97;91.37
21779;BME280;11050;52.222;20.916;2022-10-16T01:30:23;100288.97;;;15.99;91.72
21779;BME280;11050;52.222;20.916;2022-10-16T01:33:05;100290.63;;;16.00;92.00
21779;BME280;11050;52.222;20.916;2022-10-16T01:35:42;100299.47;;;16.02;91.33
21779;BME280;11050;52.222;20.916;2022-10-16T01:38:28;100289.56;;;15.96;91.60
21779;BME280;11050;52.222;20.916;2022-10-16T01:41:08;100291.22;;;15.97;92.04
21779;BME280;11050;52.222;20.916;2022-10-16T01:43:46;100292.28;;;16.01;92.65
21779;BME280;11050;52.222;20.916;2022-10-16T01:46:17;100294.56;;;15.94;93.23
21779;BME280;11050;52.222;20.916;2022-10-16T01:48:43;100280.75;;;15.84;94.08
21779;BME280;11050;52.222;20.916;2022-10-16T01:51:15;100283.84;;;15.82;94.86
21779;BME280;11050;52.222;20.916;2022-10-16T01:53:48;100286.06;;;15.80;94.48
21779;BME280;11050;52.222;20.916;2022-10-16T01:56:17;100279.97;;;15.78;95.51
21779;BME280;11050;52.222;20.916;2022-10-16T01:59:10;100278.94;;;15.74;96.32
21779;BME280;11050;52.222;20.916;2022-10-16T02:01:41;100274.19;;;15.75;96.20
21779;BME280;11050;52.222;20.916;2022-10-16T02:04:34;100273.66;;;15.73;96.18
21779;BME280;11050;52.222;20.916;2022-10-16T02:07:02;100281.41;;;15.71;96.30
21779;BME280;11050;52.222;20.916;2022-10-16T02:09:30;100278.69;;;15.66;96.53
21779;BME280;11050;52.222;20.916;2022-10-16T02:11:59;100283.66;;;15.69;96.32
21779;BME280;11050;52.222;20.916;2022-10-16T02:14:28;100268.75;;;15.60;97.05
21779;BME280;11050;52.222;20.916;2022-10-16T02:16:54;100275.38;;;15.64;96.33
21779;BME280;11050;52.222;20.916;2022-10-16T02:19:21;100278.75;;;15.61;96.49
21779;BME280;11050;52.222;20.916;2022-10-16T02:21:57;100273.50;;;15.59;97.15
21779;BME280;11050;52.222;20.916;2022-10-16T02:24:57;100278.19;;;15.59;97.11
21779;BME280;11050;52.222;20.916;2022-10-16T02:27:54;100279.28;;;15.58;96.24
21779;BME280;11050;52.222;20.916;2022-10-16T02:30:42;100278.22;;;15.54;96.68
21779;BME280;11050;52.222;20.916;2022-10-16T02:33:12;100269.91;;;15.54;97.11
21779;BME280;11050;52.222;20.916;2022-10-16T02:35:45;100279.66;;;15.46;97.57
21779;BME280;11050;52.222;20.916;2022-10-16T02:38:14;100270.28;;;15.42;97.76
21779;BME280;11050;52.222;20.916;2022-10-16T02:40:41;100280.53;;;15.42;97.22
21779;BME280;11050;52.222;20.916;2022-10-16T02:43:08;100292.16;;;15.44;97.64
21779;BME280;11050;52.222;20.916;2022-10-16T02:45:35;100284.38;;;15.46;96.96
21779;BME280;11050;52.222;20.916;2022-10-16T02:48:01;100273.31;;;15.46;97.03
21779;BME280;11050;52.222;20.916;2022-10-16T02:50:26;100283.78;;;15.49;96.87
21779;BME280;11050;52.222;20.916;2022-10-16T02:52:52;100297.09;;;15.47;97.79
21779;BME280;11050;52.222;20.916;2022-10-16T02:55:18;100293.22;;;15.48;97.50
21779;BME280;11050;52.222;20.916;2022-10-16T02:57:44;100293.22;;;15.48;97.26
21779;BME280;11050;52.222;20.916;2022-10-16T03:00:15;100299.56;;;15.48;97.65
21779;BME280;11050;52.222;20.916;2022-10-16T03:02:41;100299.03;;;15.51;97.43
21779;BME280;11050;52.222;20.916;2022-10-16T03:05:08;100298.47;;;15.49;96.95
21779;BME280;11050;52.222;20.916;2022-10-16T03:07:34;100310.41;;;15.50;97.04
21779;BME280;11050;52.222;20.916;2022-10-16T03:10:00;100295.72;;;15.49;96.47
21779;BME280;11050;52.222;20.916;2022-10-16T03:12:27;100316.47;;;15.52;96.88
21779;BME280;11050;52.222;20.916;2022-10-16T03:14:53;100304.56;;;15.51;96.99
21779;BME280;11050;52.222;20.916;2022-10-16T03:17:19;100314.50;;;15.52;96.97
21779;BME280;11050;52.222;20.916;2022-10-16T03:19:45;100313.72;;;15.52;96.82
21779;BME280;11050;52.222;20.916;2022-10-16T03:22:10;100312.56;;;15.53;96.50
21779;BME280;11050;52.222;20.916;2022-10-16T03:24:36;100312.88;;;15.51;96.72
21779;BME280;11050;52.222;20.916;2022-10-16T03:27:02;100313.97;;;15.50;97.43
21779;BME280;11050;52.222;20.916;2022-10-16T03:29:28;100320.94;;;15.48;97.99
21779;BME280;11050;52.222;20.916;2022-10-16T03:31:55;100320.94;;;15.48;97.98
21779;BME280;11050;52.222;20.916;2022-10-16T03:34:22;100316.53;;;15.42;97.36
21779;BME280;11050;52.222;20.916;2022-10-16T03:36:48;100327.84;;;15.45;97.82
21779;BME280;11050;52.222;20.916;2022-10-16T03:39:14;100321.19;;;15.46;97.53
21779;BME280;11050;52.222;20.916;2022-10-16T03:41:39;100325.09;;;15.45;97.48
21779;BME280;11050;52.222;20.916;2022-10-16T03:44:05;100329.00;;;15.44;97.36
21779;BME280;11050;52.222;20.916;2022-10-16T03:46:31;100323.72;;;15.43;97.71
21779;BME280;11050;52.222;20.916;2022-10-16T03:48:57;100324.56;;;15.38;97.76
21779;BME280;11050;52.222;20.916;2022-10-16T03:51:23;100326.50;;;15.33;98.01
21779;BME280;11050;52.222;20.916;2022-10-16T03:53:48;100325.97;;;15.31;98.19
21779;BME280;11050;52.222;20.916;2022-10-16T03:56:14;100331.50;;;15.26;97.54
21779;BME280;11050;52.222;20.916;2022-10-16T03:58:40;100319.63;;;15.20;98.02
21779;BME280;11050;52.222;20.916;2022-10-16T04:01:06;100327.72;;;15.11;98.56
21779;BME280;11050;52.222;20.916;2022-10-16T04:03:32;100333.81;;;15.03;99.85
21779;BME280;11050;52.222;20.916;2022-10-16T04:05:57;100337.72;;;14.97;100.00
21779;BME280;11050;52.222;20.916;2022-10-16T04:08:23;100333.31;;;14.96;100.00
21779;BME280;11050;52.222;20.916;2022-10-16T04:10:49;100327.22;;;14.94;100.00
21779;BME280;11050;52.222;20.916;2022-10-16T04:13:14;100332.19;;;14.97;100.00
21779;BME280;11050;52.222;20.916;2022-10-16T04:15:40;100329.97;;;14.99;100.00
21779;BME280;11050;52.222;20.916;2022-10-16T04:18:07;100342.41;;;15.02;100.00
21779;BME280;11050;52.222;20.916;2022-10-16T04:20:33;100338.81;;;15.01;100.00
21779;BME280;11050;52.222;20.916;2022-10-16T04:22:59;100342.72;;;15.00;100.00
21779;BME280;11050;52.222;20.916;2022-10-16T04:25:25;100336.59;;;15.03;100.00
21779;BME280;11050;52.222;20.916;2022-10-16T04:27:53;100342.72;;;15.00;100.00
21779;BME280;11050;52.222;20.916;2022-10-16T04:30:20;100352.69;;;14.96;100.00
21779;BME280;11050;52.222;20.916;2022-10-16T04:32:50;100345.78;;;14.89;100.00
21779;BME280;11050;52.222;20.916;2022-10-16T04:35:18;100347.72;;;14.88;100.00
21779;BME280;11050;52.222;20.916;2022-10-16T04:37:44;100346.09;;;14.77;100.00
21779;BME280;11050;52.222;20.916;2022-10-16T04:40:10;100342.25;;;14.68;100.00
21779;BME280;11050;52.222;20.916;2022-10-16T04:42:36;100349.44;;;14.64;100.00
21779;BME280;11050;52.222;20.916;2022-10-16T04:45:04;100350.56;;;14.53;100.00
21779;BME280;11050;52.222;20.916;2022-10-16T04:47:30;100350.00;;;14.46;100.00
21779;BME280;11050;52.222;20.916;2022-10-16T04:49:56;100338.16;;;14.31;100.00
21779;BME280;11050;52.222;20.916;2022-10-16T04:52:23;100351.97;;;14.31;100.00
21779;BME280;11050;52.222;20.916;2022-10-16T04:54:50;100356.63;;;14.25;100.00
21779;BME280;11050;52.222;20.916;2022-10-16T04:57:17;100353.28;;;14.18;100.00
21779;BME280;11050;52.222;20.916;2022-10-16T04:59:42;100354.69;;;14.10;100.00
21779;BME280;11050;52.222;20.916;2022-10-16T05:02:08;100345.56;;;14.00;100.00
21779;BME280;11050;52.222;20.916;2022-10-16T05:04:34;100361.88;;;14.01;100.00
21779;BME280;11050;52.222;20.916;2022-10-16T05:07:00;100363.78;;;13.96;100.00
21779;BME280;11050;52.222;20.916;2022-10-16T05:09:26;100363.78;;;13.91;100.00
21779;BME280;11050;52.222;20.916;2022-10-16T05:11:52;100371.53;;;13.89;100.00
21779;BME280;11050;52.222;20.916;2022-10-16T05:14:18;100382.03;;;13.87;100.00
21779;BME280;11050;52.222;20.916;2022-10-16T05:16:44;100383.09;;;13.86;100.00
21779;BME280;11050;52.222;20.916;2022-10-16T05:19:10;100385.34;;;13.84;100.00
21779;BME280;11050;52.222;20.916;2022-10-16T05:21:36;100387.81;;;13.85;100.00
21779;BME280;11050;52.222;20.916;2022-10-16T05:24:01;100379.81;;;13.84;100.00
21779;BME280;11050;52.222;20.916;2022-10-16T05:26:27;100376.50;;;13.82;100.00
21779;BME280;11050;52.222;20.916;2022-10-16T05:28:53;100375.09;;;13.84;100.00
21779;BME280;11050;52.222;20.916;2022-10-16T05:31:18;100381.47;;;13.85;100.00
21779;BME280;11050;52.222;20.916;2022-10-16T05:33:44;100380.06;;;13.82;100.00
21779;BME280;11050;52.222;20.916;2022-10-16T05:36:10;100373.97;;;13.80;100.00
21779;BME280;11050;52.222;20.916;2022-10-16T05:38:37;100375.09;;;13.79;100.00
21779;BME280;11050;52.222;20.916;2022-10-16T05:41:04;100368.75;;;13.79;100.00
21779;BME280;11050;52.222;20.916;2022-10-16T05:43:31;100372.06;;;13.81;100.00
21779;BME280;11050;52.222;20.916;2022-10-16T05:46:04;100381.19;;;13.81;100.00
21779;BME280;11050;52.222;20.916;2022-10-16T05:48:31;100391.66;;;13.84;100.00
21779;BME280;11050;52.222;20.916;2022-10-16T05:51:03;100389.47;;;13.86;100.00
21779;BME280;11050;52.222;20.916;2022-10-16T05:53:32;100392.78;;;13.88;100.00
21779;BME280;11050;52.222;20.916;2022-10-16T05:55:59;100396.41;;;13.89;100.00
21779;BME280;11050;52.222;20.916;2022-10-16T05:58:29;100399.16;;;13.84;100.00
21779;BME280;11050;52.222;20.916;2022-10-16T06:01:05;100400.53;;;13.86;100.00
21779;BME280;11050;52.222;20.916;2022-10-16T06:03:33;100404.41;;;13.90;100.00
21779;BME280;11050;52.222;20.916;2022-10-16T06:05:59;100405.25;;;13.96;100.00
21779;BME280;11050;52.222;20.916;2022-10-16T06:08:25;100408.56;;;14.03;100.00
21779;BME280;11050;52.222;20.916;2022-10-16T06:11:06;100411.63;;;14.11;100.00
21779;BME280;11050;52.222;20.916;2022-10-16T06:13:32;100407.50;;;14.19;100.00
21779;BME280;11050;52.222;20.916;2022-10-16T06:16:00;100408.03;;;14.26;100.00
21779;BME280;11050;52.222;20.916;2022-10-16T06:18:27;100411.94;;;14.35;100.00
21779;BME280;11050;52.222;20.916;2022-10-16T06:20:55;100417.22;;;14.42;100.00
21779;BME280;11050;52.222;20.916;2022-10-16T06:23:21;100419.13;;;14.46;100.00
21779;BME280;11050;52.222;20.916;2022-10-16T06:25:47;100414.16;;;14.48;100.00
21779;BME280;11050;52.222;20.916;2022-10-16T06:28:14;100422.44;;;14.63;100.00
21779;BME280;11050;52.222;20.916;2022-10-16T06:30:41;100424.38;;;14.73;100.00
21779;BME280;11050;52.222;20.916;2022-10-16T06:33:10;100416.91;;;14.88;100.00
21779;BME280;11050;52.222;20.916;2022-10-16T06:35:36;100430.16;;;14.96;100.00
21779;BME280;11050;52.222;20.916;2022-10-16T06:38:02;100434.88;;;15.06;100.00
21779;BME280;11050;52.222;20.916;2022-10-16T06:40:27;100424.03;;;15.14;100.00
21779;BME280;11050;52.222;20.916;2022-10-16T06:42:55;100435.63;;;15.27;100.00
21779;BME280;11050;52.222;20.916;2022-10-16T06:45:21;100442.22;;;15.41;100.00
21779;BME280;11050;52.222;20.916;2022-10-16T06:47:46;100442.47;;;15.54;98.98
21779;BME280;11050;52.222;20.916;2022-10-16T06:50:12;100434.41;;;15.68;98.85
21779;BME280;11050;52.222;20.916;2022-10-16T06:52:38;100443.97;;;15.90;97.60
21779;BME280;11050;52.222;20.916;2022-10-16T06:55:04;100437.75;;;16.08;95.82
21779;BME280;11050;52.222;20.916;2022-10-16T06:57:30;100447.06;;;16.28;94.28
21779;BME280;11050;52.222;20.916;2022-10-16T06:59:55;100453.06;;;16.45;92.95
21779;BME280;11050;52.222;20.916;2022-10-16T07:02:21;100448.00;;;16.57;92.06
21779;BME280;11050;52.222;20.916;2022-10-16T07:04:47;100443.53;;;16.61;90.28
21779;BME280;11050;52.222;20.916;2022-10-16T07:07:12;100461.53;;;16.63;89.71
21779;BME280;11050;52.222;20.916;2022-10-16T07:09:38;100455.75;;;16.60;89.51
21779;BME280;11050;52.222;20.916;2022-10-16T07:12:05;100459.41;;;16.55;90.13
21779;BME280;11050;52.222;20.916;2022-10-16T07:14:31;100471.56;;;16.59;90.33
21779;BME280;11050;52.222;20.916;2022-10-16T07:16:56;100469.59;;;16.65;90.00
21779;BME280;11050;52.222;20.916;2022-10-16T07:19:22;100470.09;;;16.67;89.64
21779;BME280;11050;52.222;20.916;2022-10-16T07:21:48;100468.66;;;16.74;89.52
21779;BME280;11050;52.222;20.916;2022-10-16T07:24:16;100478.03;;;16.83;89.42
21779;BME280;11050;52.222;20.916;2022-10-16T07:26:44;100464.94;;;16.89;88.45
21779;BME280;11050;52.222;20.916;2022-10-16T07:29:16;100461.78;;;17.00;88.91
21779;BME280;11050;52.222;20.916;2022-10-16T07:31:44;100458.06;;;17.10;87.52
21779;BME280;11050;52.222;20.916;2022-10-16T07:34:11;100440.44;;;17.20;87.34
21779;BME280;11050;52.222;20.916;2022-10-16T07:36:38;100442.06;;;17.26;87.41
21779;BME280;11050;52.222;20.916;2022-10-16T07:39:04;100435.00;;;17.38;86.75
21779;BME280;11050;52.222;20.916;2022-10-16T07:41:30;100448.66;;;17.58;85.84
21779;BME280;11050;52.222;20.916;2022-10-16T07:43:58;100447.94;;;17.71;83.92
21779;BME280;11050;52.222;20.916;2022-10-16T07:46:28;100477.44;;;17.91;82.43
21779;BME280;11050;52.222;20.916;2022-10-16T07:48:54;100472.50;;;18.07;81.38
21779;BME280;11050;52.222;20.916;2022-10-16T07:51:23;100472.88;;;18.19;80.85
21779;BME280;11050;52.222;20.916;2022-10-16T07:53:50;100462.66;;;18.33;79.88
21779;BME280;11050;52.222;20.916;2022-10-16T07:56:18;100456.16;;;18.61;79.28
21779;BME280;11050;52.222;20.916;2022-10-16T07:58:44;100456.00;;;18.84;78.24
21779;BME280;11050;52.222;20.916;2022-10-16T08:01:14;100461.94;;;19.10;76.51
21779;BME280;11050;52.222;20.916;2022-10-16T08:03:58;100469.13;;;19.30;74.95
21779;BME280;11050;52.222;20.916;2022-10-16T08:06:24;100473.31;;;19.27;74.25
21779;BME280;11050;52.222;20.916;2022-10-16T08:08:50;100493.38;;;19.29;74.28
21779;BME280;11050;52.222;20.916;2022-10-16T08:11:15;100483.63;;;19.13;75.07
21779;BME280;11050;52.222;20.916;2022-10-16T08:13:42;100489.00;;;19.23;75.34
21779;BME280;11050;52.222;20.916;2022-10-16T08:16:08;100485.97;;;19.38;75.10
21779;BME280;11050;52.222;20.916;2022-10-16T08:18:37;100493.41;;;19.43;74.89
21779;BME280;11050;52.222;20.916;2022-10-16T08:21:05;100488.25;;;19.36;74.48
21779;BME280;11050;52.222;20.916;2022-10-16T08:23:32;100486.38;;;19.32;74.92
21779;BME280;11050;52.222;20.916;2022-10-16T08:26:06;100496.25;;;19.24;74.79
21779;BME280;11050;52.222;20.916;2022-10-16T08:28:33;100499.00;;;19.43;75.37
21779;BME280;11050;52.222;20.916;2022-10-16T08:31:25;100499.75;;;19.62;73.66
21779;BME280;11050;52.222;20.916;2022-10-16T08:33:52;100508.41;;;19.60;73.73
21779;BME280;11050;52.222;20.916;2022-10-16T08:36:18;100501.31;;;19.68;73.32
21779;BME280;11050;52.222;20.916;2022-10-16T08:38:48;100506.66;;;19.78;72.83
21779;BME280;11050;52.222;20.916;2022-10-16T08:44:47;100515.03;;;20.05;71.96
21779;BME280;11050;52.222;20.916;2022-10-16T08:50:30;100517.28;;;20.17;70.74
21779;BME280;11050;52.222;20.916;2022-10-16T08:52:57;100516.78;;;20.28;70.63
21779;BME280;11050;52.222;20.916;2022-10-16T08:55:46;100521.72;;;20.45;69.61
21779;BME280;11050;52.222;20.916;2022-10-16T08:58:26;100518.91;;;20.58;69.45
21779;BME280;11050;52.222;20.916;2022-10-16T09:01:09;100508.44;;;20.64;68.79
21779;BME280;11050;52.222;20.916;2022-10-16T09:06:46;100519.59;;;20.64;68.88
21779;BME280;11050;52.222;20.916;2022-10-16T09:17:51;100519.41;;;20.83;68.70
21779;BME280;11050;52.222;20.916;2022-10-16T09:20:30;100519.13;;;21.06;66.65
21779;BME280;11050;52.222;20.916;2022-10-16T09:23:27;100525.44;;;21.12;66.70
21779;BME280;11050;52.222;20.916;2022-10-16T09:25:55;100514.34;;;21.29;66.01
21779;BME280;11050;52.222;20.916;2022-10-16T09:28:22;100510.84;;;21.45;65.45
21779;BME280;11050;52.222;20.916;2022-10-16T09:30:48;100508.13;;;21.62;64.70
21779;BME280;11050;52.222;20.916;2022-10-16T09:33:18;100504.69;;;21.65;64.09
21779;BME280;11050;52.222;20.916;2022-10-16T09:35:49;100510.72;;;21.90;64.01
21779;BME280;11050;52.222;20.916;2022-10-16T09:38:41;100511.47;;;22.12;62.08
21779;BME280;11050;52.222;20.916;2022-10-16T09:41:17;100515.59;;;22.15;62.01
21779;BME280;11050;52.222;20.916;2022-10-16T09:46:35;100523.00;;;22.11;62.26
21779;BME280;11050;52.222;20.916;2022-10-16T09:49:25;100515.41;;;22.11;61.73
21779;BME280;11050;52.222;20.916;2022-10-16T09:52:02;100519.03;;;22.12;61.66
21779;BME280;11050;52.222;20.916;2022-10-16T09:54:29;100511.84;;;22.28;61.27
21779;BME280;11050;52.222;20.916;2022-10-16T09:57:10;100509.72;;;22.50;60.05
21779;BME280;11050;52.222;20.916;2022-10-16T09:59:48;100520.31;;;22.62;59.16
21779;BME280;11050;52.222;20.916;2022-10-16T10:02:17;100519.13;;;22.54;60.31
21779;BME280;11050;52.222;20.916;2022-10-16T10:04:52;100517.84;;;22.61;59.22
21779;BME280;11050;52.222;20.916;2022-10-16T10:07:35;100517.53;;;22.62;59.68
21779;BME280;11050;52.222;20.916;2022-10-16T10:10:06;100518.66;;;22.61;59.40
21779;BME280;11050;52.222;20.916;2022-10-16T10:12:45;100522.78;;;22.81;58.45
21779;BME280;11050;52.222;20.916;2022-10-16T10:15:13;100532.34;;;22.97;58.41
21779;BME280;11050;52.222;20.916;2022-10-16T10:17:48;100527.09;;;23.04;58.12
21779;BME280;11050;52.222;20.916;2022-10-16T10:20:27;100516.66;;;23.21;57.69
21779;BME280;11050;52.222;20.916;2022-10-16T10:22:54;100516.97;;;23.28;56.51
21779;BME280;11050;52.222;20.916;2022-10-16T10:28:42;100499.81;;;23.21;56.12
21779;BME280;11050;52.222;20.916;2022-10-16T10:31:38;100508.88;;;23.27;56.96
21779;BME280;11050;52.222;20.916;2022-10-16T10:36:40;100511.25;;;23.08;56.79
21779;BME280;11050;52.222;20.916;2022-10-16T10:39:27;100503.63;;;23.08;57.32
21779;BME280;11050;52.222;20.916;2022-10-16T10:45:18;100505.66;;;22.91;57.68
21779;BME280;11050;52.222;20.916;2022-10-16T10:51:01;100511.88;;;23.05;57.22
21779;BME280;11050;52.222;20.916;2022-10-16T10:54:06;100501.16;;;23.15;56.71
21779;BME280;11050;52.222;20.916;2022-10-16T10:56:57;100488.44;;;23.18;56.47
21779;BME280;11050;52.222;20.916;2022-10-16T11:05:28;100507.91;;;23.14;56.43
21779;BME280;11050;52.222;20.916;2022-10-16T11:08:13;100506.44;;;23.08;57.12
21779;BME280;11050;52.222;20.916;2022-10-16T11:10:54;100509.41;;;23.20;56.18
21779;BME280;11050;52.222;20.916;2022-10-16T11:13:59;100512.88;;;23.09;56.89
21779;BME280;11050;52.222;20.916;2022-10-16T11:22:15;100501.78;;;23.84;54.42
21779;BME280;11050;52.222;20.916;2022-10-16T11:24:52;100496.38;;;24.17;53.66
21779;BME280;11050;52.222;20.916;2022-10-16T11:27:38;100490.84;;;24.50;52.87
21779;BME280;11050;52.222;20.916;2022-10-16T11:30:28;100512.81;;;24.77;51.59
21779;BME280;11050;52.222;20.916;2022-10-16T11:36:00;100512.84;;;24.48;51.66
21779;BME280;11050;52.222;20.916;2022-10-16T11:41:55;100502.28;;;24.24;52.78
21779;BME280;11050;52.222;20.916;2022-10-16T11:44:43;100518.34;;;24.65;51.49
21779;BME280;11050;52.222;20.916;2022-10-16T11:50:00;100500.81;;;25.42;48.62
21779;BME280;11050;52.222;20.916;2022-10-16T11:52:36;100500.94;;;25.45;48.03
21779;BME280;11050;52.222;20.916;2022-10-16T11:55:52;100494.59;;;25.15;49.36
21779;BME280;11050;52.222;20.916;2022-10-16T11:58:30;100493.53;;;24.87;51.08
21779;BME280;11050;52.222;20.916;2022-10-16T12:03:47;100499.59;;;24.77;51.14
21779;BME280;11050;52.222;20.916;2022-10-16T12:06:35;100499.50;;;24.65;51.85
21779;BME280;11050;52.222;20.916;2022-10-16T12:09:03;100504.91;;;24.70;51.58
21779;BME280;11050;52.222;20.916;2022-10-16T12:17:43;100510.31;;;25.16;50.05
21779;BME280;11050;52.222;20.916;2022-10-16T12:19:43;100524.56;;;25.32;49.08
21779;BME280;11050;52.222;20.916;2022-10-16T12:22:18;100517.94;;;25.16;49.21
21779;BME280;11050;52.222;20.916;2022-10-16T12:24:44;100521.72;;;24.99;50.24
21779;BME280;11050;52.222;20.916;2022-10-16T12:27:39;100515.03;;;24.63;51.47
21779;BME280;11050;52.222;20.916;2022-10-16T12:30:06;100513.31;;;24.50;51.77
21779;BME280;11050;52.222;20.916;2022-10-16T12:32:38;100509.53;;;24.45;51.24
21779;BME280;11050;52.222;20.916;2022-10-16T12:35:24;100519.09;;;24.53;51.28
21779;BME280;11050;52.222;20.916;2022-10-16T12:37:51;100533.22;;;24.44;51.56
21779;BME280;11050;52.222;20.916;2022-10-16T12:40:30;100531.91;;;24.13;53.06
21779;BME280;11050;52.222;20.916;2022-10-16T12:42:58;100529.19;;;23.87;53.75
21779;BME280;11050;52.222;20.916;2022-10-16T12:47:55;100513.34;;;23.28;56.22
21779;BME280;11050;52.222;20.916;2022-10-16T12:50:33;100514.38;;;23.15;57.27
21779;BME280;11050;52.222;20.916;2022-10-16T12:53:01;100523.13;;;22.88;58.19
21779;BME280;11050;52.222;20.916;2022-10-16T12:55:40;100534.81;;;22.73;59.31
21779;BME280;11050;52.222;20.916;2022-10-16T13:00:57;100530.47;;;22.41;60.67
21779;BME280;11050;52.222;20.916;2022-10-16T13:10:28;100510.91;;;21.93;63.83
21779;BME280;11050;52.222;20.916;2022-10-16T13:13:46;100518.94;;;21.86;64.25
21779;BME280;11050;52.222;20.916;2022-10-16T13:16:38;100531.09;;;21.82;64.58
21779;BME280;11050;52.222;20.916;2022-10-16T13:25:18;100534.59;;;21.56;66.81
21779;BME280;11050;52.222;20.916;2022-10-16T13:27:56;100541.28;;;21.47;68.24
21779;BME280;11050;52.222;20.916;2022-10-16T13:30:43;100550.94;;;21.41;68.84
21779;BME280;11050;52.222;20.916;2022-10-16T13:33:19;100539.25;;;21.39;68.96
21779;BME280;11050;52.222;20.916;2022-10-16T13:35:56;100552.72;;;21.37;69.57
21779;BME280;11050;52.222;20.916;2022-10-16T13:38:36;100538.88;;;21.32;70.14
21779;BME280;11050;52.222;20.916;2022-10-16T13:41:16;100556.34;;;21.37;69.68
21779;BME280;11050;52.222;20.916;2022-10-16T13:43:49;100554.50;;;21.33;70.08
21779;BME280;11050;52.222;20.916;2022-10-16T13:46:18;100550.56;;;21.34;71.09
21779;BME280;11050;52.222;20.916;2022-10-16T13:48:56;100552.09;;;21.40;70.38
21779;BME280;11050;52.222;20.916;2022-10-16T13:51:22;100547.38;;;21.49;70.47
21779;BME280;11050;52.222;20.916;2022-10-16T13:53:48;100549.41;;;21.57;70.13
21779;BME280;11050;52.222;20.916;2022-10-16T13:56:19;100544.78;;;21.61;69.76
21779;BME280;11050;52.222;20.916;2022-10-16T13:58:46;100541.19;;;21.60;69.63
21779;BME280;11050;52.222;20.916;2022-10-16T14:01:33;100537.59;;;21.68;69.78
21779;BME280;11050;52.222;20.916;2022-10-16T14:04:07;100543.19;;;21.68;69.86
21779;BME280;11050;52.222;20.916;2022-10-16T14:06:36;100537.75;;;21.63;70.13
21779;BME280;11050;52.222;20.916;2022-10-16T14:11:50;100544.00;;;21.60;70.29
21779;BME280;11050;52.222;20.916;2022-10-16T14:14:18;100541.50;;;21.59;70.73
21779;BME280;11050;52.222;20.916;2022-10-16T14:16:45;100540.88;;;21.62;70.67
21779;BME280;11050;52.222;20.916;2022-10-16T14:19:26;100551.69;;;21.55;70.70
21779;BME280;11050;52.222;20.916;2022-10-16T14:21:53;100551.69;;;21.55;71.35
21779;BME280;11050;52.222;20.916;2022-10-16T14:24:34;100554.50;;;21.55;71.60
21779;BME280;11050;52.222;20.916;2022-10-16T14:27:01;100555.31;;;21.55;71.06
21779;BME280;11050;52.222;20.916;2022-10-16T14:29:29;100559.59;;;21.53;71.87
21779;BME280;11050;52.222;20.916;2022-10-16T14:32:05;100552.47;;;21.47;71.97
21779;BME280;11050;52.222;20.916;2022-10-16T14:34:35;100562.69;;;21.51;71.56